Time;durP1;ratioP1;P1;durP2;ratioP2;P2;SDS_P1;SDS_P2;PMS_P1;PMS_P2;Temp;Humidity;BMP_temperature;BMP_pressure;BME280_temperature;BME280_humidity;BME280_pressure;Samples;Min_cycle;Max_cycle;Signal;HPM_P1;HPM_P2
2022/08/26 00:01:47;;;;;;;11.28;7.58;;;;;;;22.26;72.32;99663.78;1744578;80;21450;-69
2022/08/26 00:04:14;;;;;;;10.58;7.67;;;;;;;22.23;72.23;99665.39;1744445;80;20962;-66
2022/08/26 00:06:42;;;;;;;10.98;7.75;;;;;;;22.17;72.63;99656.08;1746719;80;21525;-65
2022/08/26 00:09:09;;;;;;;16.13;7.70;;;;;;;22.17;72.63;99656.08;1754931;80;21577;-65
2022/08/26 00:11:37;;;;;;;8.65;7.55;;;;;;;22.10;72.96;99658.45;1746917;80;22093;-65
2022/08/26 00:14:04;;;;;;;16.17;8.10;;;;;;;22.08;72.49;99659.59;1745590;80;21428;-66
2022/08/26 00:16:31;;;;;;;9.90;7.50;;;;;;;22.04;72.67;99656.34;1749367;80;21538;-65
2022/08/26 00:18:58;;;;;;;10.63;8.28;;;;;;;22.02;72.89;99654.30;1754530;80;21567;-65
2022/08/26 00:21:25;;;;;;;;;;;;;;;22.01;73.47;99659.29;1752125;80;21586;-65
2022/08/26 00:23:52;;;;;;;10.38;7.12;;;;;;;22.04;74.22;99656.34;1737474;80;22127;-65
2022/08/26 00:26:18;;;;;;;10.78;7.30;;;;;;;22.05;72.94;99654.00;1756942;80;21541;-65
2022/08/26 00:28:45;;;;;;;13.70;8.43;;;;;;;22.03;73.35;99650.63;1744337;80;21453;-65
2022/08/26 00:31:11;;;;;;;10.50;7.58;;;;;;;22.03;73.35;99650.63;1757010;80;21518;-65
2022/08/26 00:33:39;;;;;;;14.33;7.78;;;;;;;22.04;73.39;99650.13;1753498;80;21559;-65
2022/08/26 00:36:06;;;;;;;12.78;7.08;;;;;;;22.01;73.21;99648.58;1753709;80;21860;-66
2022/08/26 00:38:34;;;;;;;13.20;7.37;;;;;;;22.01;73.23;99647.24;1745048;80;20959;-65
2022/08/26 00:41:01;;;;;;;8.38;7.58;;;;;;;22.05;72.93;99649.15;1729254;80;21497;-64
2022/08/26 00:43:29;;;;;;;10.63;7.33;;;;;;;22.05;72.76;99649.15;1741584;80;21603;-64
2022/08/26 00:46:11;;;;;;;9.40;7.37;;;;;;;22.01;73.22;99647.24;1706938;80;21425;-64
2022/08/26 00:48:38;;;;;;;10.60;7.87;;;;;;;21.99;72.91;99650.55;1744855;80;21792;-64
2022/08/26 00:51:10;;;;;;;10.70;8.03;;;;;;;21.91;73.36;99647.23;1753585;80;20940;-64
2022/08/26 00:53:42;;;;;;;11.63;7.60;;;;;;;21.88;73.34;99648.84;1749362;80;21412;-65
2022/08/26 00:56:20;;;;;;;12.65;7.62;;;;;;;21.88;73.34;99648.84;1752579;80;21526;-65
2022/08/26 00:58:47;;;;;;;10.93;7.60;;;;;;;21.84;73.76;99638.56;1758710;80;21392;-65
2022/08/26 01:01:14;;;;;;;11.00;7.60;;;;;;;21.82;73.85;99643.20;1755831;80;21794;-65
2022/08/26 01:03:41;;;;;;;11.95;7.62;;;;;;;21.76;74.06;99633.90;1755436;80;21493;-65
2022/08/26 01:06:08;;;;;;;10.93;7.37;;;;;;;21.77;74.03;99634.23;1757301;80;21841;-65
2022/08/26 01:08:36;;;;;;;10.43;7.43;;;;;;;21.74;74.24;99631.86;1758381;80;21509;-66
2022/08/26 01:11:05;;;;;;;8.28;7.17;;;;;;;21.74;73.98;99631.86;1753051;80;21554;-64
2022/08/26 01:13:32;;;;;;;7.70;6.87;;;;;;;21.80;73.73;99634.47;1745342;80;21859;-64
2022/08/26 01:16:00;;;;;;;10.38;6.95;;;;;;;21.82;73.58;99638.69;1751366;80;21065;-64
2022/08/26 01:18:27;;;;;;;9.00;7.10;;;;;;;21.83;73.97;99635.05;1752192;80;21550;-64
2022/08/26 01:21:14;;;;;;;7.20;6.50;;;;;;;21.83;73.27;99631.03;1759792;80;21128;-64
2022/08/26 01:23:48;;;;;;;11.38;7.85;;;;;;;21.82;72.51;99625.81;1747258;80;21526;-64
2022/08/26 01:26:31;;;;;;;8.00;6.95;;;;;;;21.82;72.51;99625.81;1758612;80;21885;-64
2022/08/26 01:28:59;;;;;;;11.45;7.15;;;;;;;21.82;72.70;99625.31;1752438;80;21666;-64
2022/08/26 01:31:28;;;;;;;10.00;7.17;;;;;;;21.82;72.86;99626.65;1757561;80;21041;-64
2022/08/26 01:34:17;;;;;;;10.00;7.08;;;;;;;21.77;72.66;99627.08;1750941;80;21482;-64
2022/08/26 01:36:44;;;;;;;8.45;7.28;;;;;;;21.74;72.63;99624.66;1757344;80;21330;-64
2022/08/26 01:39:10;;;;;;;8.43;7.33;;;;;;;21.71;72.78;99627.61;1760143;80;21795;-64
2022/08/26 01:41:37;;;;;;;8.75;7.00;;;;;;;21.70;73.25;99626.40;1759216;80;21499;-66
2022/08/26 01:44:06;;;;;;;10.67;7.47;;;;;;;21.65;73.33;99625.48;1750221;80;21544;-65
2022/08/26 01:46:33;;;;;;;9.30;7.20;;;;;;;21.60;73.91;99631.73;1757002;80;21605;-65
2022/08/26 01:49:03;;;;;;;9.10;6.60;;;;;;;21.58;74.26;99623.00;1745640;80;21559;-65
2022/08/26 01:51:30;;;;;;;11.25;6.85;;;;;;;21.54;74.77;99606.88;1746559;80;21875;-65
2022/08/26 01:53:57;;;;;;;9.78;6.60;;;;;;;21.54;74.77;99606.88;1751775;80;21010;-65
2022/08/26 01:56:23;;;;;;;11.65;7.17;;;;;;;21.53;74.34;99609.18;1757498;80;21484;-65
2022/08/26 01:58:53;;;;;;;11.70;7.15;;;;;;;21.53;74.34;99609.18;1755216;80;21732;-64
2022/08/26 02:01:20;;;;;;;10.55;6.33;;;;;;;21.53;74.99;99617.20;1740218;80;21599;-64
2022/08/26 02:04:29;;;;;;;11.60;7.70;;;;;;;21.53;74.47;99613.19;1746376;80;21411;-65
2022/08/26 02:06:57;;;;;;;10.80;7.10;;;;;;;21.53;74.47;99613.19;1738588;80;21583;-65
2022/08/26 02:09:24;;;;;;;9.77;6.57;;;;;;;21.50;74.37;99614.83;1748188;80;21507;-64
2022/08/26 02:11:51;;;;;;;11.40;7.73;;;;;;;21.49;74.33;99612.65;1755400;80;21809;-64
2022/08/26 02:14:25;;;;;;;10.85;7.12;;;;;;;21.53;73.71;99613.19;1752851;80;21542;-66
2022/08/26 02:16:52;;;;;;;10.53;7.03;;;;;;;21.53;73.20;99610.52;1754661;80;21806;-65
2022/08/26 02:19:29;;;;;;;11.85;7.12;;;;;;;21.53;73.20;99610.52;1746129;80;21610;-65
2022/08/26 02:21:58;;;;;;;7.15;6.53;;;;;;;21.53;73.11;99603.83;1750191;80;21025;-65
2022/08/26 02:24:28;;;;;;;7.47;6.78;;;;;;;21.51;73.09;99609.81;1725723;80;21605;-65
2022/08/26 02:26:56;;;;;;;8.53;6.87;;;;;;;21.51;73.09;99609.81;1752922;80;21492;-65
2022/08/26 02:29:33;;;;;;;7.87;6.65;;;;;;;21.51;72.64;99606.67;1749611;80;21894;-65
2022/08/26 02:32:00;;;;;;;10.35;7.30;;;;;;;21.50;72.64;99607.64;1746854;80;21513;-65
2022/08/26 02:34:30;;;;;;;10.68;6.60;;;;;;;21.42;73.29;99615.94;1758891;80;21573;-65
2022/08/26 02:37:00;;;;;;;12.47;7.05;;;;;;;21.41;72.78;99616.94;1746824;80;21601;-64
2022/08/26 02:39:28;;;;;;;8.08;7.15;;;;;;;21.39;73.07;99611.72;1755815;80;21543;-65
2022/08/26 02:41:55;;;;;;;8.40;6.75;;;;;;;21.39;73.07;99611.72;1742383;80;21804;-65
2022/08/26 02:44:22;;;;;;;11.73;6.47;;;;;;;21.32;73.04;99615.45;1751848;80;21494;-65
2022/08/26 02:46:48;;;;;;;9.33;6.70;;;;;;;21.28;72.96;99615.34;1743581;80;21541;-65
2022/08/26 02:49:15;;;;;;;9.70;6.50;;;;;;;21.29;72.75;99617.05;1741524;80;21038;-64
2022/08/26 02:51:42;;;;;;;9.10;6.70;;;;;;;21.35;73.16;99621.00;1746629;80;21585;-65
2022/08/26 02:54:09;;;;;;;10.72;6.92;;;;;;;21.35;73.21;99618.33;1753252;80;21878;-65
2022/08/26 02:56:36;;;;;;;7.97;6.17;;;;;;;21.38;73.97;99622.08;1752957;80;21511;-65
2022/08/26 02:59:03;;;;;;;7.97;7.00;;;;;;;21.45;72.75;99625.08;1755955;80;21499;-65
2022/08/26 03:01:32;;;;;;;10.35;6.87;;;;;;;21.49;72.58;99622.48;1748561;80;21606;-65
2022/08/26 03:04:00;;;;;;;10.05;5.78;;;;;;;21.49;72.58;99622.48;1755682;80;21567;-65
2022/08/26 03:06:26;;;;;;;10.72;6.80;;;;;;;21.48;72.67;99624.31;1753756;80;21870;-65
2022/08/26 03:08:54;;;;;;;7.00;6.28;;;;;;;21.45;72.14;99624.58;1749483;80;21411;-65
2022/08/26 03:11:21;;;;;;;9.00;6.87;;;;;;;21.42;72.31;99631.52;1758873;80;21561;-65
2022/08/26 03:13:47;;;;;;;12.63;6.95;;;;;;;21.36;72.08;99625.35;1742511;80;21415;-65
2022/08/26 03:16:15;;;;;;;9.80;5.90;;;;;;;21.36;72.33;99626.22;1751295;80;21566;-64
2022/08/26 03:18:42;;;;;;;10.05;6.92;;;;;;;21.33;71.62;99629.66;1762222;80;21701;-65
2022/08/26 03:21:13;;;;;;;13.68;7.33;;;;;;;21.37;71.28;99629.23;1746623;80;21537;-65
2022/08/26 03:23:40;;;;;;;8.00;6.30;;;;;;;21.46;70.60;99637.48;1753186;80;21573;-65
2022/08/26 03:26:07;;;;;;;9.83;7.00;;;;;;;21.48;70.54;99632.84;1758747;80;21543;-65
2022/08/26 03:28:35;;;;;;;8.40;6.70;;;;;;;21.49;70.42;99634.05;1746491;80;21558;-65
2022/08/26 03:31:01;;;;;;;14.00;6.25;;;;;;;21.52;70.77;99634.25;1745979;80;21815;-65
2022/08/26 03:33:28;;;;;;;10.23;6.78;;;;;;;21.50;70.60;99633.55;1751405;80;21488;-66
2022/08/26 03:35:54;;;;;;;13.32;6.97;;;;;;;21.50;70.60;99633.55;1751345;80;21451;-65
2022/08/26 03:38:23;;;;;;;7.83;6.47;;;;;;;21.51;70.72;99629.88;1758142;80;21499;-65
2022/08/26 03:40:51;;;;;;;9.93;7.35;;;;;;;21.47;70.84;99631.13;1754135;80;21523;-65
2022/08/26 03:43:18;;;;;;;7.70;6.30;;;;;;;21.49;70.81;99635.84;1739988;80;21788;-65
2022/08/26 03:45:45;;;;;;;9.43;6.37;;;;;;;21.53;70.63;99638.13;1745804;80;21549;-65
2022/08/26 03:48:12;;;;;;;9.30;6.08;;;;;;;21.54;70.47;99629.11;1763200;80;21050;-65
2022/08/26 03:50:39;;;;;;;11.57;6.70;;;;;;;21.60;70.46;99627.72;1751024;80;21567;-66
2022/08/26 03:53:06;;;;;;;11.85;6.50;;;;;;;21.61;70.32;99630.77;1753220;80;21436;-64
2022/08/26 03:55:32;;;;;;;10.35;6.22;;;;;;;21.63;70.48;99626.12;1752063;80;21768;-65
2022/08/26 03:57:59;;;;;;;10.08;6.00;;;;;;;21.65;70.53;99631.34;1759611;80;21547;-65
2022/08/26 04:00:26;;;;;;;9.40;6.67;;;;;;;21.68;69.78;99630.58;1749719;80;21482;-65
2022/08/26 04:02:53;;;;;;;11.12;6.12;;;;;;;21.68;69.52;99626.56;1744593;80;21293;-65
2022/08/26 04:05:21;;;;;;;11.57;6.92;;;;;;;21.71;69.09;99626.27;1757573;80;21538;-65
2022/08/26 04:07:50;;;;;;;7.78;5.78;;;;;;;21.76;69.31;99624.53;1744058;80;21559;-67
2022/08/26 04:10:17;;;;;;;8.63;6.00;;;;;;;21.85;68.28;99616.14;1755966;80;21659;-66
2022/08/26 04:12:44;;;;;;;;;;;;;;;21.85;68.27;99616.14;1748164;80;21411;-65
2022/08/26 04:15:14;;;;;;;11.25;6.37;;;;;;;21.84;67.66;99614.47;1749766;80;20407;-65
2022/08/26 04:17:41;;;;;;;12.03;6.42;;;;;;;21.88;67.38;99612.70;1750811;80;21558;-65
2022/08/26 04:20:12;;;;;;;9.35;6.15;;;;;;;21.91;66.61;99610.27;1744295;80;21585;-66
2022/08/26 04:22:37;;;;;;;11.35;6.30;;;;;;;22.03;66.27;99610.97;1744757;80;21434;-66
2022/08/26 04:25:05;;;;;;;12.53;6.10;;;;;;;22.10;66.66;99610.27;1741429;80;21475;-65
2022/08/26 04:27:32;;;;;;;7.75;5.65;;;;;;;22.14;66.06;99608.16;1752724;80;21025;-66
2022/08/26 04:29:59;;;;;;;10.35;5.85;;;;;;;22.18;66.56;99609.56;1747094;80;21618;-67
2022/08/26 04:32:26;;;;;;;10.10;5.77;;;;;;;22.20;66.67;99602.23;1755378;80;21811;-66
2022/08/26 04:34:52;;;;;;;7.22;5.87;;;;;;;22.26;66.52;99604.36;1734599;80;21524;-66
2022/08/26 04:37:19;;;;;;;8.18;5.92;;;;;;;22.33;65.26;99606.83;1752229;80;21637;-66
2022/08/26 04:39:52;;;;;;;8.93;5.78;;;;;;;22.37;65.87;99603.88;1742702;80;21535;-66
2022/08/26 04:42:19;;;;;;;7.25;5.60;;;;;;;22.40;64.88;99599.09;1734282;80;21581;-67
2022/08/26 04:44:46;;;;;;;10.98;5.80;;;;;;;22.40;64.33;99596.91;1748963;80;23071;-66
2022/08/26 04:47:13;;;;;;;9.68;6.50;;;;;;;22.45;65.10;99601.32;1743156;80;21551;-66
2022/08/26 04:49:40;;;;;;;13.48;5.70;;;;;;;22.51;64.84;99594.91;1748617;80;21515;-66
2022/08/26 04:52:07;;;;;;;8.68;6.22;;;;;;;22.60;64.65;99597.70;1749399;80;21599;-66
2022/08/26 04:54:34;;;;;;;8.63;5.78;;;;;;;22.66;63.28;99598.46;1746373;80;21574;-66
2022/08/26 04:57:01;;;;;;;8.85;5.45;;;;;;;22.76;62.38;99599.30;1742933;80;21942;-66
2022/08/26 04:59:27;;;;;;;11.10;5.28;;;;;;;22.81;61.71;99598.38;1745896;80;21443;-65
2022/08/26 05:01:56;;;;;;;9.78;5.87;;;;;;;22.85;61.90;99600.25;1750387;80;21526;-66
2022/08/26 05:04:22;;;;;;;8.23;5.55;;;;;;;23.00;59.12;99591.23;1760871;80;21701;-65
2022/08/26 05:06:49;;;;;;;9.10;5.43;;;;;;;23.00;59.12;99591.23;1772810;80;21572;-65
2022/08/26 05:09:17;;;;;;;9.23;5.70;;;;;;;23.10;59.03;99595.61;1765098;80;22018;-65
2022/08/26 05:11:45;;;;;;;10.53;5.53;;;;;;;23.28;57.85;99594.34;1760488;80;21498;-66
2022/08/26 05:14:12;;;;;;;12.15;5.75;;;;;;;23.28;57.85;99594.34;1765086;80;21538;-66
2022/08/26 05:16:39;;;;;;;8.30;4.90;;;;;;;23.41;57.71;99598.50;1769849;80;21617;-64
2022/08/26 05:19:06;;;;;;;9.58;5.12;;;;;;;23.47;57.29;99590.72;1762065;80;21518;-64
2022/08/26 05:21:33;;;;;;;8.78;5.37;;;;;;;23.57;56.05;99597.36;1759482;80;21980;-65
2022/08/26 05:24:00;;;;;;;7.83;5.70;;;;;;;23.64;56.37;99600.27;1757043;80;21487;-66
2022/08/26 05:26:28;;;;;;;14.80;5.20;;;;;;;23.74;55.60;99596.21;1768186;80;21621;-66
2022/08/26 05:28:55;;;;;;;10.03;5.58;;;;;;;23.84;55.05;99597.84;1763342;80;21581;-67
2022/08/26 05:31:25;;;;;;;10.80;5.97;;;;;;;23.94;54.57;99592.90;1761841;80;21506;-66
2022/08/26 05:33:53;;;;;;;9.40;5.45;;;;;;;24.02;53.39;99587.63;1755053;80;21780;-67
2022/08/26 05:36:22;;;;;;;;;;;;;;;24.08;53.39;99590.53;1772949;80;21566;-67
2022/08/26 05:38:48;;;;;;;9.05;5.15;;;;;;;24.15;52.27;99594.80;1761638;80;20132;-66
2022/08/26 05:41:27;;;;;;;14.47;5.78;;;;;;;24.18;52.80;99593.63;1770264;80;21447;-65
2022/08/26 05:43:58;;;;;;;14.15;5.55;;;;;;;24.25;52.71;99593.36;1759471;80;21416;-67
2022/08/26 05:46:25;;;;;;;14.53;5.50;;;;;;;24.39;51.90;99588.80;1756021;80;21930;-66
2022/08/26 05:48:53;;;;;;;10.85;5.20;;;;;;;24.39;51.90;99588.80;1751635;80;21489;-65
2022/08/26 05:51:20;;;;;;;10.28;5.35;;;;;;;24.47;51.38;99586.66;1763234;80;21564;-66
2022/08/26 05:53:47;;;;;;;6.77;5.87;;;;;;;24.54;51.56;99591.77;1768615;80;20966;-68
2022/08/26 05:56:14;;;;;;;9.53;5.83;;;;;;;24.60;50.79;99590.29;1762102;80;21700;-66
2022/08/26 05:58:41;;;;;;;;;;;;;;;24.65;50.14;99596.05;1771632;79;21889;-66
2022/08/26 06:01:19;;;;;;;10.72;5.97;;;;;;;24.73;49.70;99597.44;1754893;79;20492;-68
2022/08/26 06:03:48;;;;;;;12.90;5.85;;;;;;;24.78;50.24;99596.47;1755558;80;21458;-65
2022/08/26 06:06:22;;;;;;;18.62;5.90;;;;;;;24.85;49.67;99600.72;1758593;80;21412;-64
2022/08/26 06:08:49;;;;;;;14.28;6.55;;;;;;;24.92;50.08;99603.13;1760125;80;21577;-65
2022/08/26 06:11:19;;;;;;;14.05;6.15;;;;;;;25.02;49.13;99596.28;1750056;80;21811;-66
2022/08/26 06:13:46;;;;;;;13.03;5.55;;;;;;;25.11;48.92;99598.49;1764127;80;21416;-65
2022/08/26 06:16:15;;;;;;;16.27;5.90;;;;;;;25.14;48.59;99597.67;1758435;80;21528;-66
2022/08/26 06:18:43;;;;;;;13.93;5.30;;;;;;;25.19;48.51;99607.97;1753754;80;21596;-65
2022/08/26 06:21:17;;;;;;;12.80;5.40;;;;;;;25.25;48.12;99601.45;1765180;80;21006;-66
2022/08/26 06:26:32;;;;;;;18.25;6.03;;;;;;;25.43;47.54;99601.89;1758491;80;21600;-66
2022/08/26 06:28:58;;;;;;;11.90;5.67;;;;;;;25.49;47.33;99600.39;1760154;80;21578;-64
2022/08/26 06:31:25;;;;;;;8.50;5.55;;;;;;;25.55;47.08;99603.77;1755551;80;21076;-67
2022/08/26 06:33:52;;;;;;;12.53;5.00;;;;;;;25.57;46.97;99603.94;1754089;80;21498;-65
2022/08/26 06:36:24;;;;;;;9.63;5.95;;;;;;;25.67;46.20;99604.30;1754880;80;21852;-64
2022/08/26 06:38:52;;;;;;;13.43;5.47;;;;;;;25.75;46.62;99604.31;1755706;80;21706;-64
2022/08/26 06:41:21;;;;;;;14.60;5.70;;;;;;;25.83;46.12;99597.11;1760990;80;21475;-66
2022/08/26 06:43:49;;;;;;;10.05;4.75;;;;;;;25.89;45.62;99593.42;1758919;80;21400;-64
2022/08/26 06:46:17;;;;;;;11.75;5.25;;;;;;;25.99;45.22;99585.56;1761364;80;20931;-63
2022/08/26 06:48:44;;;;;;;11.43;5.47;;;;;;;26.10;45.40;99589.76;1754610;80;22087;-64
2022/08/26 06:51:17;;;;;;;14.73;5.15;;;;;;;26.17;44.66;99580.00;1753732;80;21555;-65
2022/08/26 06:53:45;;;;;;;17.32;5.42;;;;;;;26.24;44.07;99582.88;1753306;80;21484;-66
2022/08/26 06:56:14;;;;;;;11.68;5.40;;;;;;;26.33;43.54;99576.45;1751083;80;21029;-68
2022/08/26 06:58:42;;;;;;;17.50;5.20;;;;;;;26.44;43.66;99572.58;1757494;80;21529;-67
2022/08/26 07:01:23;;;;;;;15.58;5.55;;;;;;;26.52;43.25;99575.28;1735620;80;21614;-66
2022/08/26 07:03:52;;;;;;;9.93;5.17;;;;;;;26.63;43.01;99584.05;1715276;81;21562;-66
2022/08/26 07:06:20;;;;;;;13.72;5.10;;;;;;;26.76;42.34;99588.41;1697486;82;21550;-67
2022/08/26 07:08:51;;;;;;;13.55;5.00;;;;;;;26.84;41.95;99594.29;1724272;80;21437;-67
2022/08/26 07:11:19;;;;;;;14.43;4.90;;;;;;;26.92;42.31;99590.24;1720781;81;21482;-68
2022/08/26 07:15:02;;;;;;;17.12;5.15;;;;;;;26.55;43.79;99595.66;1793160;79;23180;-65
2022/08/26 07:17:29;;;;;;;10.88;5.00;;;;;;;27.32;42.12;99593.84;1770538;80;21396;-65
2022/08/26 07:19:56;;;;;;;15.70;5.05;;;;;;;27.45;40.83;99587.36;1761393;80;21803;-66
2022/08/26 07:22:23;;;;;;;15.53;5.80;;;;;;;27.54;40.79;99593.06;1767216;78;21518;-67
2022/08/26 07:24:50;;;;;;;14.10;5.10;;;;;;;27.64;40.39;99587.43;1758221;80;21695;-68
2022/08/26 07:27:17;;;;;;;17.20;5.70;;;;;;;27.72;39.84;99581.97;1766829;80;21458;-67
2022/08/26 07:29:43;;;;;;;6.42;4.55;;;;;;;27.83;39.68;99583.95;1759464;80;21461;-69
2022/08/26 07:32:12;;;;;;;15.53;5.20;;;;;;;27.89;39.20;99586.79;1769389;80;21601;-67
2022/08/26 07:34:39;;;;;;;16.00;4.80;;;;;;;27.98;38.73;99578.65;1767776;80;21084;-68
2022/08/26 07:37:06;;;;;;;22.35;4.95;;;;;;;28.05;38.20;99580.93;1762857;80;21502;-66
2022/08/26 07:39:32;;;;;;;12.35;5.05;;;;;;;28.09;37.70;99579.58;1773029;79;21458;-66
2022/08/26 07:42:01;;;;;;;12.75;5.03;;;;;;;28.15;37.71;99577.49;1760092;79;21100;-65
2022/08/26 07:44:28;;;;;;;;;;;;;;;28.20;37.84;99575.09;1772271;80;21801;-67
2022/08/26 07:46:55;;;;;;;11.57;4.58;;;;;;;28.26;36.98;99569.47;1765087;80;25727;-66
2022/08/26 07:49:22;;;;;;;13.00;4.53;;;;;;;28.33;37.44;99564.51;1755518;80;21466;-66
2022/08/26 07:51:50;;;;;;;22.90;5.55;;;;;;;28.40;37.00;99566.47;1762946;80;27146;-65
2022/08/26 07:54:16;;;;;;;10.20;4.42;;;;;;;28.53;36.73;99557.25;1758699;80;20970;-66
2022/08/26 07:56:44;;;;;;;14.63;4.30;;;;;;;28.67;36.47;99553.73;1767853;79;21747;-66
2022/08/26 07:59:11;;;;;;;11.65;4.70;;;;;;;28.78;36.19;99547.52;1770630;80;21621;-67
2022/08/26 08:01:39;;;;;;;8.68;4.30;;;;;;;28.87;36.05;99544.53;1770316;80;21091;-66
2022/08/26 08:04:06;;;;;;;22.37;4.73;;;;;;;28.97;36.12;99544.27;1770441;80;21515;-66
2022/08/26 08:06:33;;;;;;;12.70;4.97;;;;;;;29.10;35.89;99546.30;1761934;80;21615;-66
2022/08/26 08:09:00;;;;;;;13.75;4.60;;;;;;;29.20;35.83;99545.53;1764321;80;21966;-65
2022/08/26 08:11:28;;;;;;;15.37;4.63;;;;;;;29.32;34.97;99549.94;1764649;80;21486;-66
2022/08/26 08:13:54;;;;;;;15.83;5.28;;;;;;;29.39;35.21;99543.27;1758887;79;21499;-65
2022/08/26 08:16:21;;;;;;;11.45;4.80;;;;;;;29.48;34.98;99540.25;1751309;80;21403;-65
2022/08/26 08:18:48;;;;;;;14.10;4.50;;;;;;;29.54;35.17;99534.58;1752604;80;21502;-65
2022/08/26 08:21:14;;;;;;;17.77;4.12;;;;;;;29.66;35.03;99540.33;1736706;80;21828;-65
2022/08/26 08:23:42;;;;;;;15.95;4.62;;;;;;;29.71;34.50;99533.83;1760418;80;21598;-65
2022/08/26 08:26:09;;;;;;;15.03;4.40;;;;;;;29.75;34.23;99529.73;1749503;80;21574;-66
2022/08/26 08:28:37;;;;;;;13.80;4.90;;;;;;;29.78;34.10;99532.55;1747565;80;21547;-65
2022/08/26 08:31:04;;;;;;;15.85;4.53;;;;;;;29.86;33.81;99523.80;1749474;80;21589;-65
2022/08/26 08:33:32;;;;;;;13.30;4.03;;;;;;;29.98;33.79;99523.27;1754944;80;21784;-65
2022/08/26 08:35:59;;;;;;;17.98;4.30;;;;;;;30.04;33.55;99524.67;1744170;80;21468;-65
2022/08/26 08:38:26;;;;;;;18.50;4.70;;;;;;;30.11;32.76;99523.91;1748084;80;21622;-65
2022/08/26 08:40:52;;;;;;;16.43;4.30;;;;;;;30.15;33.11;99524.66;1752541;80;21448;-65
2022/08/26 08:43:31;;;;;;;14.40;4.47;;;;;;;30.18;32.81;99520.22;1748894;80;21618;-64
2022/08/26 08:46:06;;;;;;;10.60;4.58;;;;;;;30.23;32.61;99520.48;1749681;80;21845;-65
2022/08/26 08:48:35;;;;;;;16.93;4.12;;;;;;;30.24;32.83;99520.78;1759665;80;21399;-66
2022/08/26 08:51:15;;;;;;;18.45;4.10;;;;;;;30.38;32.46;99512.77;1744859;80;21509;-65
2022/08/26 08:53:44;;;;;;;17.80;4.60;;;;;;;30.48;31.80;99510.56;1712809;80;21479;-65
2022/08/26 08:56:25;;;;;;;16.37;3.87;;;;;;;30.53;31.99;99512.14;1748439;80;21511;-64
2022/08/26 08:59:05;;;;;;;11.57;3.90;;;;;;;30.61;31.29;99498.94;1756749;80;21726;-64
2022/08/26 09:01:40;;;;;;;11.97;3.72;;;;;;;30.70;30.62;99505.05;1748776;80;21545;-65
2022/08/26 09:04:48;;;;;;;11.00;3.70;;;;;;;30.77;30.65;99504.05;1746511;80;21080;-66
2022/08/26 09:07:58;;;;;;;17.75;3.55;;;;;;;30.88;30.19;99497.23;1762483;80;21456;-65
2022/08/26 09:10:45;;;;;;;12.75;3.27;;;;;;;30.98;30.10;99492.81;1755800;80;20938;-63
2022/08/26 09:13:14;;;;;;;20.20;4.20;;;;;;;31.15;29.19;99483.79;1749049;80;21748;-65
2022/08/26 09:16:12;;;;;;;9.38;3.55;;;;;;;31.24;29.96;99485.29;1755111;80;20942;-65
2022/08/26 09:19:00;;;;;;;8.30;3.08;;;;;;;31.36;30.00;99479.59;1742208;80;21557;-65
2022/08/26 09:21:27;;;;;;;11.03;4.20;;;;;;;31.49;28.73;99482.87;1748853;80;21472;-67
2022/08/26 09:23:55;;;;;;;15.08;3.20;;;;;;;31.58;27.57;99481.63;1743788;80;21482;-63
2022/08/26 09:26:29;;;;;;;13.60;3.95;;;;;;;31.59;27.02;99474.31;1749044;80;21542;-63
2022/08/26 09:29:02;;;;;;;11.78;2.80;;;;;;;31.63;27.41;99477.78;1749639;80;21458;-63
2022/08/26 09:31:32;;;;;;;14.33;3.42;;;;;;;31.72;26.94;99477.08;1747088;80;21538;-64
2022/08/26 09:34:11;;;;;;;8.90;2.35;;;;;;;31.82;26.42;99467.15;1751130;80;21538;-65
2022/08/26 09:36:53;;;;;;;11.95;3.67;;;;;;;31.96;25.64;99467.45;1746366;80;21518;-65
2022/08/26 09:39:36;;;;;;;20.52;2.75;;;;;;;32.05;25.70;99460.48;1747078;80;21597;-64
2022/08/26 09:42:09;;;;;;;10.82;3.12;;;;;;;32.09;25.00;99462.56;1754503;80;21515;-63
2022/08/26 09:44:58;;;;;;;15.93;3.22;;;;;;;32.13;24.50;99471.97;1750514;80;21476;-65
2022/08/26 09:47:31;;;;;;;13.78;2.72;;;;;;;32.18;24.15;99467.27;1756929;80;21482;-66
2022/08/26 09:50:13;;;;;;;13.90;2.45;;;;;;;32.23;23.83;99467.98;1748562;80;21586;-64
2022/08/26 09:52:39;;;;;;;9.83;2.85;;;;;;;32.30;23.93;99468.28;1752323;80;21886;-65
2022/08/26 09:55:17;;;;;;;10.53;3.12;;;;;;;32.39;23.47;99467.55;1756652;80;21511;-64
2022/08/26 09:57:51;;;;;;;9.13;2.77;;;;;;;32.43;23.30;99462.52;1754086;80;21037;-65
2022/08/26 10:00:38;;;;;;;10.85;2.90;;;;;;;32.46;23.24;99461.58;1748403;80;21558;-64
2022/08/26 10:03:07;;;;;;;;;;;;;;;32.48;23.34;99462.20;1751852;80;21582;-64
2022/08/26 10:05:47;;;;;;;9.38;2.17;;;;;;;32.48;22.50;99455.93;1752770;80;20747;-64
2022/08/26 10:08:28;;;;;;;12.35;2.50;;;;;;;32.45;22.97;99460.42;1744916;80;21525;-65
2022/08/26 10:10:57;;;;;;;13.55;2.72;;;;;;;32.55;22.71;99467.10;1744029;80;21097;-64
2022/08/26 10:13:31;;;;;;;4.60;2.27;;;;;;;32.64;22.93;99460.09;1756735;80;21640;-63
2022/08/26 10:16:06;;;;;;;14.03;2.92;;;;;;;32.71;23.12;99459.55;1768973;80;21642;-64
2022/08/26 10:18:42;;;;;;;12.70;3.47;;;;;;;32.72;23.09;99463.42;1760132;80;22099;-64
2022/08/26 10:21:14;;;;;;;11.60;2.12;;;;;;;32.73;23.05;99462.36;1760221;80;21487;-64
2022/08/26 10:23:50;;;;;;;8.60;2.50;;;;;;;32.74;22.73;99458.59;1770848;80;21520;-64
2022/08/26 10:26:43;;;;;;;5.65;2.45;;;;;;;32.76;22.61;99463.30;1759919;80;21489;-64
2022/08/26 10:29:18;;;;;;;5.55;2.08;;;;;;;32.83;22.83;99462.43;1770755;80;21013;-67
2022/08/26 10:31:55;;;;;;;8.60;1.87;;;;;;;32.88;22.69;99465.34;1767353;80;21784;-64
2022/08/26 10:34:21;;;;;;;11.08;2.70;;;;;;;32.91;22.37;99463.57;1771111;80;21510;-64
2022/08/26 10:37:03;;;;;;;16.30;2.70;;;;;;;32.97;22.39;99468.97;1766142;80;21435;-65
2022/08/26 10:39:48;;;;;;;6.40;2.60;;;;;;;33.02;22.16;99464.76;1767914;80;21593;-64
2022/08/26 10:42:25;;;;;;;6.33;2.17;;;;;;;33.00;22.40;99466.87;1765998;80;21587;-64
2022/08/26 10:44:54;;;;;;;5.60;2.10;;;;;;;33.01;22.49;99459.02;1762396;80;21446;-64
2022/08/26 10:47:30;;;;;;;8.50;2.52;;;;;;;33.09;23.15;99458.76;1771798;79;21418;-64
2022/08/26 10:49:56;;;;;;;7.83;2.50;;;;;;;33.08;22.85;99457.11;1766901;80;21593;-63
2022/08/26 10:52:41;;;;;;;8.77;2.57;;;;;;;33.10;23.02;99449.02;1768494;80;21419;-63
2022/08/26 10:55:20;;;;;;;10.30;2.45;;;;;;;33.16;23.13;99451.43;1767832;80;21606;-63
2022/08/26 10:58:18;;;;;;;8.73;2.52;;;;;;;33.22;22.83;99451.91;1771493;80;21842;-63
2022/08/26 11:03:59;;;;;;;10.08;2.62;;;;;;;33.38;22.67;99455.16;1766280;80;21525;-65
2022/08/26 11:06:27;;;;;;;4.95;2.12;;;;;;;33.39;22.37;99448.68;1762934;80;21509;-66
2022/08/26 11:08:58;;;;;;;4.37;2.10;;;;;;;33.45;22.09;99440.98;1765907;80;21509;-67
2022/08/26 11:11:44;;;;;;;4.78;1.80;;;;;;;33.50;22.04;99436.54;1754261;80;21695;-67
2022/08/26 11:14:22;;;;;;;6.12;2.10;;;;;;;33.55;21.28;99427.19;1764318;79;21570;-64
2022/08/26 11:16:53;;;;;;;9.63;2.62;;;;;;;33.55;21.12;99432.63;1702568;81;20983;-64
2022/08/26 11:19:41;;;;;;;8.40;2.27;;;;;;;33.58;20.39;99433.24;1706074;83;21014;-67
2022/08/26 11:22:28;;;;;;;5.83;1.90;;;;;;;33.54;20.59;99440.48;1731575;80;21586;-65
2022/08/26 11:24:59;;;;;;;9.93;1.87;;;;;;;33.56;20.50;99442.46;1712306;81;21457;-64
2022/08/26 11:27:38;;;;;;;7.33;1.98;;;;;;;33.66;20.80;99439.80;1735023;80;21063;-63
2022/08/26 11:30:16;;;;;;;8.25;2.10;;;;;;;33.78;20.45;99431.23;1731736;80;21468;-63
2022/08/26 11:32:49;;;;;;;8.25;2.20;;;;;;;33.86;20.24;99436.93;1714958;80;21573;-64
2022/08/26 11:35:24;;;;;;;4.87;2.02;;;;;;;33.97;20.40;99433.48;1726223;80;21496;-64
2022/08/26 11:38:27;;;;;;;10.82;2.55;;;;;;;34.06;19.78;99428.05;1713954;82;21447;-63
2022/08/26 11:41:05;;;;;;;6.47;2.40;;;;;;;34.09;19.72;99428.94;1726101;80;21077;-64
2022/08/26 11:43:32;;;;;;;12.63;2.42;;;;;;;34.12;20.19;99431.23;1727731;80;21608;-63
2022/08/26 11:46:09;;;;;;;9.05;2.35;;;;;;;34.13;20.16;99424.73;1723242;80;21622;-64
2022/08/26 11:48:39;;;;;;;9.88;2.62;;;;;;;34.11;20.18;99422.77;1717809;81;21563;-64
2022/08/26 11:51:21;;;;;;;10.80;2.40;;;;;;;34.11;20.51;99435.03;1714336;81;21748;-65
2022/08/26 11:53:48;;;;;;;10.03;2.45;;;;;;;34.06;20.52;99442.22;1694211;83;21498;-66